sensor_id;sensor_type;location;lat;lon;timestamp;pressure;altitude;pressure_sealevel;temperature
42197;BMP280;27866;48.146;17.098;2023-03-12T00:02:47;99259.66;;;4.26
42197;BMP280;27866;48.146;17.098;2023-03-12T00:06:59;99253.69;;;4.26
42197;BMP280;27866;48.146;17.098;2023-03-12T00:11:14;99248.03;;;4.19
42197;BMP280;27866;48.146;17.098;2023-03-12T00:15:26;99253.72;;;4.09
42197;BMP280;27866;48.146;17.098;2023-03-12T00:19:38;99267.16;;;3.98
42197;BMP280;27866;48.146;17.098;2023-03-12T00:23:50;99275.88;;;3.94
42197;BMP280;27866;48.146;17.098;2023-03-12T00:28:01;99275.13;;;3.92
42197;BMP280;27866;48.146;17.098;2023-03-12T00:32:13;99275.72;;;3.97
42197;BMP280;27866;48.146;17.098;2023-03-12T00:36:28;99284.91;;;3.84
42197;BMP280;27866;48.146;17.098;2023-03-12T00:40:40;99285.38;;;3.76
42197;BMP280;27866;48.146;17.098;2023-03-12T00:44:51;99292.91;;;3.78
42197;BMP280;27866;48.146;17.098;2023-03-12T00:49:02;99285.88;;;3.82
42197;BMP280;27866;48.146;17.098;2023-03-12T00:53:14;99289.16;;;3.85
42197;BMP280;27866;48.146;17.098;2023-03-12T00:57:25;99282.81;;;3.92
42197;BMP280;27866;48.146;17.098;2023-03-12T01:01:36;99287.00;;;3.93
42197;BMP280;27866;48.146;17.098;2023-03-12T01:05:48;99289.44;;;3.96
42197;BMP280;27866;48.146;17.098;2023-03-12T01:10:05;99298.31;;;4.05
42197;BMP280;27866;48.146;17.098;2023-03-12T01:14:17;99300.41;;;4.14
42197;BMP280;27866;48.146;17.098;2023-03-12T01:18:28;99300.19;;;4.19
42197;BMP280;27866;48.146;17.098;2023-03-12T01:22:39;99289.03;;;4.19
42197;BMP280;27866;48.146;17.098;2023-03-12T01:26:51;99293.03;;;4.08
42197;BMP280;27866;48.146;17.098;2023-03-12T01:31:08;99294.72;;;4.09
42197;BMP280;27866;48.146;17.098;2023-03-12T01:35:20;99314.28;;;4.10
42197;BMP280;27866;48.146;17.098;2023-03-12T01:39:31;99312.63;;;4.09
42197;BMP280;27866;48.146;17.098;2023-03-12T01:43:44;99306.63;;;3.94
42197;BMP280;27866;48.146;17.098;2023-03-12T01:47:56;99313.53;;;3.92
42197;BMP280;27866;48.146;17.098;2023-03-12T01:52:12;99317.63;;;3.79
42197;BMP280;27866;48.146;17.098;2023-03-12T01:56:32;99320.59;;;3.71
42197;BMP280;27866;48.146;17.098;2023-03-12T02:00:45;99333.19;;;3.75
42197;BMP280;27866;48.146;17.098;2023-03-12T02:09:23;99329.50;;;3.80
42197;BMP280;27866;48.146;17.098;2023-03-12T02:13:36;99325.00;;;3.85
42197;BMP280;27866;48.146;17.098;2023-03-12T02:17:47;99311.50;;;3.82
42197;BMP280;27866;48.146;17.098;2023-03-12T02:21:59;99305.69;;;3.78
42197;BMP280;27866;48.146;17.098;2023-03-12T02:26:11;99311.88;;;3.75
42197;BMP280;27866;48.146;17.098;2023-03-12T02:30:23;99317.91;;;3.74
42197;BMP280;27866;48.146;17.098;2023-03-12T02:34:34;99321.16;;;3.77
42197;BMP280;27866;48.146;17.098;2023-03-12T02:38:52;99317.75;;;3.76
42197;BMP280;27866;48.146;17.098;2023-03-12T02:43:06;99323.84;;;3.74
42197;BMP280;27866;48.146;17.098;2023-03-12T02:47:17;99326.72;;;3.68
42197;BMP280;27866;48.146;17.098;2023-03-12T02:51:29;99328.53;;;3.66
42197;BMP280;27866;48.146;17.098;2023-03-12T02:55:40;99335.66;;;3.60
42197;BMP280;27866;48.146;17.098;2023-03-12T02:59:52;99341.91;;;3.55
42197;BMP280;27866;48.146;17.098;2023-03-12T03:04:05;99357.25;;;3.55
42197;BMP280;27866;48.146;17.098;2023-03-12T03:08:17;99355.56;;;3.54
42197;BMP280;27866;48.146;17.098;2023-03-12T03:12:30;99352.34;;;3.50
42197;BMP280;27866;48.146;17.098;2023-03-12T03:16:42;99356.63;;;3.50
42197;BMP280;27866;48.146;17.098;2023-03-12T03:21:05;99363.34;;;3.52
42197;BMP280;27866;48.146;17.098;2023-03-12T03:25:17;99358.41;;;3.48
42197;BMP280;27866;48.146;17.098;2023-03-12T03:29:32;99367.69;;;3.50
42197;BMP280;27866;48.146;17.098;2023-03-12T03:33:45;99368.25;;;3.39
42197;BMP280;27866;48.146;17.098;2023-03-12T03:37:57;99370.13;;;3.35
42197;BMP280;27866;48.146;17.098;2023-03-12T03:42:10;99376.22;;;3.33
42197;BMP280;27866;48.146;17.098;2023-03-12T03:46:22;99383.28;;;3.28
42197;BMP280;27866;48.146;17.098;2023-03-12T03:50:40;99385.75;;;3.30
42197;BMP280;27866;48.146;17.098;2023-03-12T03:54:52;99392.41;;;3.33
42197;BMP280;27866;48.146;17.098;2023-03-12T03:59:04;99394.88;;;3.35
42197;BMP280;27866;48.146;17.098;2023-03-12T04:03:19;99391.44;;;3.36
42197;BMP280;27866;48.146;17.098;2023-03-12T04:07:31;99406.63;;;3.39
42197;BMP280;27866;48.146;17.098;2023-03-12T04:11:42;99397.81;;;3.46
42197;BMP280;27866;48.146;17.098;2023-03-12T04:15:56;99404.72;;;3.44
42197;BMP280;27866;48.146;17.098;2023-03-12T04:20:08;99406.50;;;3.42
42197;BMP280;27866;48.146;17.098;2023-03-12T04:24:23;99404.72;;;3.44
42197;BMP280;27866;48.146;17.098;2023-03-12T04:28:36;99414.09;;;3.43
42197;BMP280;27866;48.146;17.098;2023-03-12T04:32:48;99415.06;;;3.41
42197;BMP280;27866;48.146;17.098;2023-03-12T04:37:01;99430.56;;;3.38
42197;BMP280;27866;48.146;17.098;2023-03-12T04:41:15;99445.22;;;3.34
42197;BMP280;27866;48.146;17.098;2023-03-12T04:45:42;99448.00;;;3.30
42197;BMP280;27866;48.146;17.098;2023-03-12T04:49:53;99454.91;;;3.28
42197;BMP280;27866;48.146;17.098;2023-03-12T04:54:05;99466.16;;;3.24
42197;BMP280;27866;48.146;17.098;2023-03-12T04:58:19;99469.59;;;3.23
42197;BMP280;27866;48.146;17.098;2023-03-12T05:02:30;99479.03;;;3.23
42197;BMP280;27866;48.146;17.098;2023-03-12T05:06:42;99488.13;;;3.10
42197;BMP280;27866;48.146;17.098;2023-03-12T05:10:53;99490.25;;;3.01
42197;BMP280;27866;48.146;17.098;2023-03-12T05:15:06;99489.22;;;3.05
42197;BMP280;27866;48.146;17.098;2023-03-12T05:19:18;99501.16;;;3.04
42197;BMP280;27866;48.146;17.098;2023-03-12T05:23:31;99516.59;;;3.03
42197;BMP280;27866;48.146;17.098;2023-03-12T05:27:43;99515.97;;;2.98
42197;BMP280;27866;48.146;17.098;2023-03-12T05:31:55;99517.25;;;3.08
42197;BMP280;27866;48.146;17.098;2023-03-12T05:36:08;99521.94;;;3.17
42197;BMP280;27866;48.146;17.098;2023-03-12T05:40:19;99526.91;;;3.19
42197;BMP280;27866;48.146;17.098;2023-03-12T05:44:31;99528.84;;;3.34
42197;BMP280;27866;48.146;17.098;2023-03-12T05:48:45;99533.34;;;3.47
42197;BMP280;27866;48.146;17.098;2023-03-12T05:52:56;99544.84;;;3.75
42197;BMP280;27866;48.146;17.098;2023-03-12T05:57:08;99536.00;;;5.32
42197;BMP280;27866;48.146;17.098;2023-03-12T06:01:23;99522.56;;;9.16
42197;BMP280;27866;48.146;17.098;2023-03-12T06:05:37;99528.78;;;11.35
42197;BMP280;27866;48.146;17.098;2023-03-12T06:09:50;99533.09;;;12.83
42197;BMP280;27866;48.146;17.098;2023-03-12T06:14:02;99548.94;;;13.70
42197;BMP280;27866;48.146;17.098;2023-03-12T06:18:14;99558.31;;;14.78
42197;BMP280;27866;48.146;17.098;2023-03-12T06:22:26;99559.16;;;15.61
42197;BMP280;27866;48.146;17.098;2023-03-12T06:26:39;99565.25;;;16.06
42197;BMP280;27866;48.146;17.098;2023-03-12T06:30:53;99560.28;;;17.00
42197;BMP280;27866;48.146;17.098;2023-03-12T06:35:05;99558.31;;;18.19
42197;BMP280;27866;48.146;17.098;2023-03-12T06:39:16;99564.66;;;18.41
42197;BMP280;27866;48.146;17.098;2023-03-12T06:43:30;99555.59;;;18.60
42197;BMP280;27866;48.146;17.098;2023-03-12T06:47:41;99579.88;;;18.62
42197;BMP280;27866;48.146;17.098;2023-03-12T06:51:53;99574.81;;;19.24
42197;BMP280;27866;48.146;17.098;2023-03-12T06:56:06;99582.88;;;19.30
42197;BMP280;27866;48.146;17.098;2023-03-12T07:00:18;99575.19;;;18.16
42197;BMP280;27866;48.146;17.098;2023-03-12T07:04:30;99591.59;;;13.08
42197;BMP280;27866;48.146;17.098;2023-03-12T07:08:41;99623.56;;;11.49
42197;BMP280;27866;48.146;17.098;2023-03-12T07:12:53;99610.91;;;13.96
42197;BMP280;27866;48.146;17.098;2023-03-12T07:17:04;99603.75;;;16.49
42197;BMP280;27866;48.146;17.098;2023-03-12T07:21:17;99597.34;;;16.96
42197;BMP280;27866;48.146;17.098;2023-03-12T07:25:41;99587.63;;;16.88
42197;BMP280;27866;48.146;17.098;2023-03-12T07:29:52;99601.16;;;12.03
42197;BMP280;27866;48.146;17.098;2023-03-12T07:34:04;99611.03;;;9.82
42197;BMP280;27866;48.146;17.098;2023-03-12T07:38:16;99609.91;;;9.24
42197;BMP280;27866;48.146;17.098;2023-03-12T07:42:27;99613.59;;;13.55
42197;BMP280;27866;48.146;17.098;2023-03-12T07:46:41;99591.59;;;15.31
42197;BMP280;27866;48.146;17.098;2023-03-12T07:50:52;99596.31;;;11.99
42197;BMP280;27866;48.146;17.098;2023-03-12T07:55:04;99608.00;;;10.12
42197;BMP280;27866;48.146;17.098;2023-03-12T07:59:15;99621.09;;;12.34
42197;BMP280;27866;48.146;17.098;2023-03-12T08:03:27;99592.97;;;13.73
42197;BMP280;27866;48.146;17.098;2023-03-12T08:07:38;99603.06;;;12.12
42197;BMP280;27866;48.146;17.098;2023-03-12T08:11:50;99608.97;;;13.38
42197;BMP280;27866;48.146;17.098;2023-03-12T08:16:01;99600.66;;;16.62
42197;BMP280;27866;48.146;17.098;2023-03-12T08:20:13;99605.56;;;14.84
42197;BMP280;27866;48.146;17.098;2023-03-12T08:24:24;99606.56;;;16.64
42197;BMP280;27866;48.146;17.098;2023-03-12T08:28:36;99597.44;;;19.10
42197;BMP280;27866;48.146;17.098;2023-03-12T08:32:47;99598.31;;;18.85
42197;BMP280;27866;48.146;17.098;2023-03-12T08:36:59;99618.50;;;19.41
42197;BMP280;27866;48.146;17.098;2023-03-12T08:41:10;99618.44;;;20.72
42197;BMP280;27866;48.146;17.098;2023-03-12T08:45:21;99604.75;;;20.76
42197;BMP280;27866;48.146;17.098;2023-03-12T08:49:32;99620.78;;;18.56
42197;BMP280;27866;48.146;17.098;2023-03-12T08:53:44;99607.94;;;21.31
42197;BMP280;27866;48.146;17.098;2023-03-12T08:57:56;99610.19;;;24.55
42197;BMP280;27866;48.146;17.098;2023-03-12T09:02:11;99608.34;;;26.23
42197;BMP280;27866;48.146;17.098;2023-03-12T09:06:22;99601.47;;;27.58
42197;BMP280;27866;48.146;17.098;2023-03-12T09:10:34;99600.78;;;26.14
42197;BMP280;27866;48.146;17.098;2023-03-12T09:14:45;99600.22;;;22.31
42197;BMP280;27866;48.146;17.098;2023-03-12T09:18:57;99595.38;;;23.52
42197;BMP280;27866;48.146;17.098;2023-03-12T09:23:08;99611.84;;;22.86
42197;BMP280;27866;48.146;17.098;2023-03-12T09:27:19;99600.59;;;25.32
42197;BMP280;27866;48.146;17.098;2023-03-12T09:31:31;99601.38;;;24.22
42197;BMP280;27866;48.146;17.098;2023-03-12T09:35:43;99600.53;;;24.74
42197;BMP280;27866;48.146;17.098;2023-03-12T09:39:54;99602.59;;;25.82
42197;BMP280;27866;48.146;17.098;2023-03-12T09:44:37;99600.53;;;29.75
42197;BMP280;27866;48.146;17.098;2023-03-12T09:48:52;99600.25;;;29.65
42197;BMP280;27866;48.146;17.098;2023-03-12T09:53:27;99597.25;;;31.73
42197;BMP280;27866;48.146;17.098;2023-03-12T09:57:43;99592.75;;;31.02
42197;BMP280;27866;48.146;17.098;2023-03-12T10:02:01;99592.72;;;31.90
42197;BMP280;27866;48.146;17.098;2023-03-12T10:06:20;99587.28;;;32.01
42197;BMP280;27866;48.146;17.098;2023-03-12T10:16:09;99589.63;;;33.30
42197;BMP280;27866;48.146;17.098;2023-03-12T10:21:02;99574.53;;;30.88
42197;BMP280;27866;48.146;17.098;2023-03-12T10:26:13;99573.59;;;21.90
42197;BMP280;27866;48.146;17.098;2023-03-12T10:30:28;99585.50;;;17.93
42197;BMP280;27866;48.146;17.098;2023-03-12T10:34:57;99592.66;;;15.84
42197;BMP280;27866;48.146;17.098;2023-03-12T10:39:18;99590.41;;;14.78
42197;BMP280;27866;48.146;17.098;2023-03-12T10:43:30;99587.84;;;14.49
42197;BMP280;27866;48.146;17.098;2023-03-12T10:47:43;99589.50;;;15.90
42197;BMP280;27866;48.146;17.098;2023-03-12T10:52:01;99579.06;;;22.66
42197;BMP280;27866;48.146;17.098;2023-03-12T10:56:18;99589.53;;;27.66
42197;BMP280;27866;48.146;17.098;2023-03-12T11:00:31;99580.00;;;28.95
42197;BMP280;27866;48.146;17.098;2023-03-12T11:04:50;99577.78;;;30.46
42197;BMP280;27866;48.146;17.098;2023-03-12T11:09:20;99564.13;;;31.79
42197;BMP280;27866;48.146;17.098;2023-03-12T11:13:40;99562.06;;;31.43
42197;BMP280;27866;48.146;17.098;2023-03-12T11:17:51;99546.88;;;32.66
42197;BMP280;27866;48.146;17.098;2023-03-12T11:22:09;99547.19;;;32.70
42197;BMP280;27866;48.146;17.098;2023-03-12T11:26:24;99546.78;;;32.13
42197;BMP280;27866;48.146;17.098;2023-03-12T11:30:39;99542.00;;;31.56
42197;BMP280;27866;48.146;17.098;2023-03-12T11:34:51;99531.91;;;31.90
42197;BMP280;27866;48.146;17.098;2023-03-12T11:44:32;99510.97;;;33.55
42197;BMP280;27866;48.146;17.098;2023-03-12T12:02:47;99483.41;;;32.97
42197;BMP280;27866;48.146;17.098;2023-03-12T12:16:38;99471.94;;;32.44
42197;BMP280;27866;48.146;17.098;2023-03-12T12:21:47;99462.66;;;32.67
42197;BMP280;27866;48.146;17.098;2023-03-12T12:35:42;99441.41;;;32.45
42197;BMP280;27866;48.146;17.098;2023-03-12T12:44:33;99449.91;;;32.05
42197;BMP280;27866;48.146;17.098;2023-03-12T12:48:54;99454.38;;;32.53
42197;BMP280;27866;48.146;17.098;2023-03-12T12:58:22;99440.63;;;32.13
42197;BMP280;27866;48.146;17.098;2023-03-12T13:02:38;99438.16;;;31.74
42197;BMP280;27866;48.146;17.098;2023-03-12T13:11:38;99433.06;;;31.46
42197;BMP280;27866;48.146;17.098;2023-03-12T13:15:51;99431.13;;;31.41
42197;BMP280;27866;48.146;17.098;2023-03-12T13:20:40;99422.66;;;31.06
42197;BMP280;27866;48.146;17.098;2023-03-12T13:33:50;99425.28;;;31.01
42197;BMP280;27866;48.146;17.098;2023-03-12T13:38:06;99410.47;;;30.34
42197;BMP280;27866;48.146;17.098;2023-03-12T13:46:38;99416.09;;;22.40
42197;BMP280;27866;48.146;17.098;2023-03-12T13:50:54;99418.19;;;21.03
42197;BMP280;27866;48.146;17.098;2023-03-12T13:59:26;99427.13;;;19.30
42197;BMP280;27866;48.146;17.098;2023-03-12T14:03:48;99431.38;;;18.85
42197;BMP280;27866;48.146;17.098;2023-03-12T14:17:24;99442.69;;;18.77
42197;BMP280;27866;48.146;17.098;2023-03-12T14:21:38;99439.72;;;18.65
42197;BMP280;27866;48.146;17.098;2023-03-12T14:25:56;99453.47;;;18.67
42197;BMP280;27866;48.146;17.098;2023-03-12T14:30:23;99445.53;;;17.96
42197;BMP280;27866;48.146;17.098;2023-03-12T14:34:54;99447.38;;;17.54
42197;BMP280;27866;48.146;17.098;2023-03-12T14:39:26;99444.53;;;18.37
42197;BMP280;27866;48.146;17.098;2023-03-12T14:43:40;99442.25;;;20.19
42197;BMP280;27866;48.146;17.098;2023-03-12T14:47:57;99443.69;;;20.14
42197;BMP280;27866;48.146;17.098;2023-03-12T14:52:13;99445.84;;;19.04
42197;BMP280;27866;48.146;17.098;2023-03-12T14:56:32;99434.03;;;17.89
42197;BMP280;27866;48.146;17.098;2023-03-12T15:01:03;99447.38;;;17.12
42197;BMP280;27866;48.146;17.098;2023-03-12T15:05:19;99444.72;;;16.87
42197;BMP280;27866;48.146;17.098;2023-03-12T15:09:34;99440.63;;;16.42
42197;BMP280;27866;48.146;17.098;2023-03-12T15:13:46;99423.94;;;16.09
42197;BMP280;27866;48.146;17.098;2023-03-12T15:17:57;99430.50;;;15.78
42197;BMP280;27866;48.146;17.098;2023-03-12T15:22:16;99434.59;;;15.54
42197;BMP280;27866;48.146;17.098;2023-03-12T15:26:30;99429.69;;;15.42
42197;BMP280;27866;48.146;17.098;2023-03-12T15:30:43;99425.09;;;15.53
42197;BMP280;27866;48.146;17.098;2023-03-12T15:34:55;99429.88;;;15.66
42197;BMP280;27866;48.146;17.098;2023-03-12T15:39:33;99424.41;;;15.60
42197;BMP280;27866;48.146;17.098;2023-03-12T15:43:56;99434.72;;;14.99
42197;BMP280;27866;48.146;17.098;2023-03-12T15:48:38;99438.00;;;14.73
42197;BMP280;27866;48.146;17.098;2023-03-12T15:53:23;99428.81;;;14.60
42197;BMP280;27866;48.146;17.098;2023-03-12T15:57:46;99429.59;;;14.51
42197;BMP280;27866;48.146;17.098;2023-03-12T16:01:58;99427.84;;;14.43
42197;BMP280;27866;48.146;17.098;2023-03-12T16:06:19;99425.19;;;14.24
42197;BMP280;27866;48.146;17.098;2023-03-12T16:10:34;99425.75;;;14.19
42197;BMP280;27866;48.146;17.098;2023-03-12T16:14:47;99422.16;;;14.10
42197;BMP280;27866;48.146;17.098;2023-03-12T16:18:59;99424.47;;;14.04
42197;BMP280;27866;48.146;17.098;2023-03-12T16:23:11;99415.53;;;13.88
42197;BMP280;27866;48.146;17.098;2023-03-12T16:27:23;99420.84;;;13.87
42197;BMP280;27866;48.146;17.098;2023-03-12T16:31:34;99404.81;;;13.82
42197;BMP280;27866;48.146;17.098;2023-03-12T16:35:46;99415.69;;;13.67
42197;BMP280;27866;48.146;17.098;2023-03-12T16:39:58;99416.75;;;13.64
42197;BMP280;27866;48.146;17.098;2023-03-12T16:44:17;99413.75;;;13.60
42197;BMP280;27866;48.146;17.098;2023-03-12T16:48:29;99414.44;;;13.32
42197;BMP280;27866;48.146;17.098;2023-03-12T16:52:41;99425.66;;;13.33
42197;BMP280;27866;48.146;17.098;2023-03-12T16:56:52;99426.53;;;13.23
42197;BMP280;27866;48.146;17.098;2023-03-12T17:01:03;99450.22;;;13.20
42197;BMP280;27866;48.146;17.098;2023-03-12T17:05:15;99447.44;;;13.12
42197;BMP280;27866;48.146;17.098;2023-03-12T17:09:26;99454.13;;;12.95
42197;BMP280;27866;48.146;17.098;2023-03-12T17:13:37;99456.81;;;12.84
42197;BMP280;27866;48.146;17.098;2023-03-12T17:17:49;99465.72;;;12.71
42197;BMP280;27866;48.146;17.098;2023-03-12T17:22:00;99477.13;;;12.79
42197;BMP280;27866;48.146;17.098;2023-03-12T17:26:12;99475.09;;;12.83
42197;BMP280;27866;48.146;17.098;2023-03-12T17:30:25;99480.38;;;12.92
42197;BMP280;27866;48.146;17.098;2023-03-12T17:34:36;99483.75;;;13.03
42197;BMP280;27866;48.146;17.098;2023-03-12T17:38:48;99459.50;;;12.83
42197;BMP280;27866;48.146;17.098;2023-03-12T17:42:59;99477.59;;;12.84
42197;BMP280;27866;48.146;17.098;2023-03-12T17:47:10;99487.91;;;12.75
42197;BMP280;27866;48.146;17.098;2023-03-12T17:51:22;99480.47;;;12.71
42197;BMP280;27866;48.146;17.098;2023-03-12T17:55:35;99477.41;;;12.66
42197;BMP280;27866;48.146;17.098;2023-03-12T17:59:46;99483.78;;;12.73
42197;BMP280;27866;48.146;17.098;2023-03-12T18:03:57;99492.75;;;12.69
42197;BMP280;27866;48.146;17.098;2023-03-12T18:08:09;99490.03;;;12.70
42197;BMP280;27866;48.146;17.098;2023-03-12T18:12:20;99483.56;;;12.65
42197;BMP280;27866;48.146;17.098;2023-03-12T18:16:32;99473.06;;;12.45
42197;BMP280;27866;48.146;17.098;2023-03-12T18:20:43;99474.63;;;12.47
42197;BMP280;27866;48.146;17.098;2023-03-12T18:24:55;99478.88;;;12.48
42197;BMP280;27866;48.146;17.098;2023-03-12T18:29:06;99472.28;;;12.34
42197;BMP280;27866;48.146;17.098;2023-03-12T18:33:17;99460.09;;;12.15
42197;BMP280;27866;48.146;17.098;2023-03-12T18:37:28;99466.47;;;12.11
42197;BMP280;27866;48.146;17.098;2023-03-12T18:41:40;99476.94;;;12.20
42197;BMP280;27866;48.146;17.098;2023-03-12T18:45:51;99475.13;;;12.20
42197;BMP280;27866;48.146;17.098;2023-03-12T18:50:02;99468.09;;;12.12
42197;BMP280;27866;48.146;17.098;2023-03-12T18:54:14;99474.59;;;12.06
42197;BMP280;27866;48.146;17.098;2023-03-12T18:58:26;99474.00;;;12.14
42197;BMP280;27866;48.146;17.098;2023-03-12T19:02:38;99463.47;;;12.15
42197;BMP280;27866;48.146;17.098;2023-03-12T19:06:49;99479.06;;;12.15
42197;BMP280;27866;48.146;17.098;2023-03-12T19:11:07;99485.16;;;12.25
42197;BMP280;27866;48.146;17.098;2023-03-12T19:15:21;99496.03;;;12.19
42197;BMP280;27866;48.146;17.098;2023-03-12T19:19:33;99501.81;;;12.22
42197;BMP280;27866;48.146;17.098;2023-03-12T19:23:45;99499.38;;;12.10
42197;BMP280;27866;48.146;17.098;2023-03-12T19:27:56;99500.78;;;12.14
42197;BMP280;27866;48.146;17.098;2023-03-12T19:32:07;99487.19;;;12.21
42197;BMP280;27866;48.146;17.098;2023-03-12T19:36:19;99492.63;;;12.08
42197;BMP280;27866;48.146;17.098;2023-03-12T19:40:31;99495.94;;;12.10
42197;BMP280;27866;48.146;17.098;2023-03-12T19:44:42;99492.97;;;12.25
42197;BMP280;27866;48.146;17.098;2023-03-12T19:48:53;99489.78;;;12.21
42197;BMP280;27866;48.146;17.098;2023-03-12T19:53:05;99501.94;;;12.21
42197;BMP280;27866;48.146;17.098;2023-03-12T19:57:17;99507.38;;;12.18
42197;BMP280;27866;48.146;17.098;2023-03-12T20:01:29;99507.72;;;12.14
42197;BMP280;27866;48.146;17.098;2023-03-12T20:05:44;99516.13;;;12.06
42197;BMP280;27866;48.146;17.098;2023-03-12T20:09:56;99515.75;;;12.00
42197;BMP280;27866;48.146;17.098;2023-03-12T20:14:07;99517.53;;;11.89
42197;BMP280;27866;48.146;17.098;2023-03-12T20:18:18;99524.59;;;11.66
42197;BMP280;27866;48.146;17.098;2023-03-12T20:22:29;99525.38;;;11.45
42197;BMP280;27866;48.146;17.098;2023-03-12T20:26:42;99535.72;;;11.24
42197;BMP280;27866;48.146;17.098;2023-03-12T20:30:54;99538.91;;;11.04
42197;BMP280;27866;48.146;17.098;2023-03-12T20:35:06;99541.44;;;10.94
42197;BMP280;27866;48.146;17.098;2023-03-12T20:39:17;99544.41;;;10.89
42197;BMP280;27866;48.146;17.098;2023-03-12T20:43:28;99540.94;;;10.78
42197;BMP280;27866;48.146;17.098;2023-03-12T20:47:41;99541.66;;;10.80
42197;BMP280;27866;48.146;17.098;2023-03-12T20:51:52;99539.16;;;10.79
42197;BMP280;27866;48.146;17.098;2023-03-12T20:56:04;99539.09;;;10.68
42197;BMP280;27866;48.146;17.098;2023-03-12T21:00:15;99534.03;;;10.67
42197;BMP280;27866;48.146;17.098;2023-03-12T21:04:27;99538.44;;;10.54
42197;BMP280;27866;48.146;17.098;2023-03-12T21:08:38;99538.38;;;10.43
42197;BMP280;27866;48.146;17.098;2023-03-12T21:12:49;99546.66;;;10.48
42197;BMP280;27866;48.146;17.098;2023-03-12T21:17:00;99546.53;;;10.50
42197;BMP280;27866;48.146;17.098;2023-03-12T21:21:12;99543.41;;;10.57
42197;BMP280;27866;48.146;17.098;2023-03-12T21:25:23;99542.25;;;10.61
42197;BMP280;27866;48.146;17.098;2023-03-12T21:29:34;99556.56;;;10.54
42197;BMP280;27866;48.146;17.098;2023-03-12T21:33:46;99551.13;;;10.46
42197;BMP280;27866;48.146;17.098;2023-03-12T21:37:57;99553.91;;;10.43
42197;BMP280;27866;48.146;17.098;2023-03-12T21:42:09;99555.75;;;10.54
42197;BMP280;27866;48.146;17.098;2023-03-12T21:46:20;99555.75;;;10.54
42197;BMP280;27866;48.146;17.098;2023-03-12T21:50:36;99557.72;;;10.50
42197;BMP280;27866;48.146;17.098;2023-03-12T21:54:48;99558.66;;;10.49
42197;BMP280;27866;48.146;17.098;2023-03-12T21:58:59;99565.03;;;10.56
42197;BMP280;27866;48.146;17.098;2023-03-12T22:03:10;99563.88;;;10.60
42197;BMP280;27866;48.146;17.098;2023-03-12T22:07:21;99547.91;;;10.66
42197;BMP280;27866;48.146;17.098;2023-03-12T22:11:32;99551.56;;;10.63
42197;BMP280;27866;48.146;17.098;2023-03-12T22:16:00;99569.69;;;10.63
42197;BMP280;27866;48.146;17.098;2023-03-12T22:20:12;99571.22;;;10.66
42197;BMP280;27866;48.146;17.098;2023-03-12T22:24:23;99574.75;;;10.65
42197;BMP280;27866;48.146;17.098;2023-03-12T22:28:35;99569.34;;;10.68
42197;BMP280;27866;48.146;17.098;2023-03-12T22:32:46;99575.25;;;10.70
42197;BMP280;27866;48.146;17.098;2023-03-12T22:36:57;99567.28;;;10.72
42197;BMP280;27866;48.146;17.098;2023-03-12T22:41:26;99572.88;;;10.67
42197;BMP280;27866;48.146;17.098;2023-03-12T22:45:37;99576.19;;;10.69
42197;BMP280;27866;48.146;17.098;2023-03-12T22:49:48;99583.53;;;10.74
42197;BMP280;27866;48.146;17.098;2023-03-12T22:54:02;99581.69;;;10.87
42197;BMP280;27866;48.146;17.098;2023-03-12T22:58:14;99580.41;;;10.92
42197;BMP280;27866;48.146;17.098;2023-03-12T23:02:25;99572.78;;;10.91
42197;BMP280;27866;48.146;17.098;2023-03-12T23:06:36;99578.63;;;10.82
42197;BMP280;27866;48.146;17.098;2023-03-12T23:10:57;99588.53;;;10.88
42197;BMP280;27866;48.146;17.098;2023-03-12T23:15:10;99576.31;;;10.90
42197;BMP280;27866;48.146;17.098;2023-03-12T23:19:22;99594.16;;;10.82
42197;BMP280;27866;48.146;17.098;2023-03-12T23:23:34;99586.81;;;10.76
42197;BMP280;27866;48.146;17.098;2023-03-12T23:27:45;99599.06;;;10.74
42197;BMP280;27866;48.146;17.098;2023-03-12T23:31:56;99605.69;;;10.78
42197;BMP280;27866;48.146;17.098;2023-03-12T23:36:19;99596.63;;;10.84
42197;BMP280;27866;48.146;17.098;2023-03-12T23:40:30;99602.25;;;10.78
42197;BMP280;27866;48.146;17.098;2023-03-12T23:44:42;99602.81;;;10.71
42197;BMP280;27866;48.146;17.098;2023-03-12T23:48:53;99600.41;;;10.68
42197;BMP280;27866;48.146;17.098;2023-03-12T23:53:04;99597.94;;;10.66
42197;BMP280;27866;48.146;17.098;2023-03-12T23:57:16;99600.22;;;10.71
